TRA81J EBBR-LEIB
Flight info
| Callsign | TRA81J |
|---|---|
| Flight time | 2h 7m |
| Altitude | 33000 |
| Route | CIV N872 LESDO DCT KOVIN DCT DUCRA/N0463F350 UM728 RESMI UN857 DISAK DCT DIRMO DCT ETAMO DCT ADEKA DCT MOKDI DCT MEN DCT BADAM DCT KANIG DCT KENAS N855 POS |
| Aircraft | B738/M-SDE2E3FGHIRWXY/LB1 |
Departure
| Time | 2026-05-06 09:21 |
|---|---|
| Airport | Brussels Airport (EBBR) |
Arrival
| Time | 2026-05-06 11:28 |
|---|---|
| Airport | Ibiza Airport (LEIB) |
| Time | Latitude | Longitude | Altitude | Speed | Heading |
|---|---|---|---|---|---|
| 2026-05-06 09:08 | 50.90217 | 4.47881 | 117 ft | 0 kts | 156° |
| 2026-05-06 09:11 | 50.90218 | 4.47881 | 118 ft | 0 kts | 156° |
| 2026-05-06 09:11 | 50.90230 | 4.47872 | 117 ft | 2 kts | 155° |
| 2026-05-06 09:12 | 50.90244 | 4.47862 | 116 ft | 2 kts | 156° |
| 2026-05-06 09:12 | 50.90258 | 4.47852 | 116 ft | 2 kts | 155° |
| 2026-05-06 09:12 | 50.90266 | 4.47846 | 116 ft | 2 kts | 156° |
| 2026-05-06 09:12 | 50.90277 | 4.47831 | 115 ft | 2 kts | 114° |
| 2026-05-06 09:13 | 50.90280 | 4.47807 | 115 ft | 2 kts | 79° |
| 2026-05-06 09:13 | 50.90278 | 4.47796 | 114 ft | 1 kts | 59° |
| 2026-05-06 09:13 | 50.90276 | 4.47789 | 114 ft | 0 kts | 65° |
| 2026-05-06 09:15 | 50.90276 | 4.47792 | 114 ft | 2 kts | 65° |
| 2026-05-06 09:16 | 50.90300 | 4.47873 | 114 ft | 10 kts | 65° |
| 2026-05-06 09:16 | 50.90337 | 4.47998 | 113 ft | 15 kts | 62° |
| 2026-05-06 09:16 | 50.90435 | 4.48077 | 112 ft | 18 kts | 72° |
| 2026-05-06 09:16 | 50.90496 | 4.48279 | 112 ft | 21 kts | 65° |
| 2026-05-06 09:17 | 50.90556 | 4.48487 | 111 ft | 20 kts | 66° |
| 2026-05-06 09:17 | 50.90613 | 4.48685 | 112 ft | 19 kts | 65° |
| 2026-05-06 09:17 | 50.90666 | 4.48869 | 114 ft | 17 kts | 65° |
| 2026-05-06 09:17 | 50.90719 | 4.49053 | 115 ft | 22 kts | 66° |
| 2026-05-06 09:18 | 50.90787 | 4.49287 | 116 ft | 23 kts | 66° |
| 2026-05-06 09:18 | 50.90856 | 4.49521 | 112 ft | 23 kts | 67° |
| 2026-05-06 09:18 | 50.90926 | 4.49760 | 109 ft | 24 kts | 65° |
| 2026-05-06 09:18 | 50.91042 | 4.49920 | 105 ft | 19 kts | 24° |
| 2026-05-06 09:19 | 50.91135 | 4.49872 | 104 ft | 13 kts | 254° |
| 2026-05-06 09:19 | 50.91131 | 4.49856 | 104 ft | 0 kts | 246° |
| 2026-05-06 09:20 | 50.91125 | 4.49833 | 104 ft | 10 kts | 246° |
| 2026-05-06 09:20 | 50.90996 | 4.49375 | 106 ft | 79 kts | 248° |
| 2026-05-06 09:20 | 50.90677 | 4.48281 | 106 ft | 138 kts | 244° |
| 2026-05-06 09:20 | 50.90210 | 4.46658 | 235 ft | 173 kts | 249° |
| 2026-05-06 09:21 | 50.89771 | 4.44956 | 1002 ft | 167 kts | 256° |
| 2026-05-06 09:21 | 50.89698 | 4.43140 | 1545 ft | 173 kts | 297° |
| 2026-05-06 09:21 | 50.90377 | 4.41660 | 1998 ft | 170 kts | 321° |
| 2026-05-06 09:21 | 50.91040 | 4.40004 | 2331 ft | 194 kts | 286° |
| 2026-05-06 09:22 | 50.90989 | 4.37764 | 2729 ft | 211 kts | 266° |
| 2026-05-06 09:22 | 50.90845 | 4.35412 | 3137 ft | 220 kts | 273° |
| 2026-05-06 09:22 | 50.90857 | 4.32957 | 3575 ft | 229 kts | 272° |
| 2026-05-06 09:22 | 50.90520 | 4.30392 | 3916 ft | 250 kts | 244° |
| 2026-05-06 09:23 | 50.89379 | 4.28253 | 4374 ft | 264 kts | 220° |
| 2026-05-06 09:23 | 50.87923 | 4.26405 | 4975 ft | 272 kts | 218° |
| 2026-05-06 09:23 | 50.86422 | 4.24486 | 5463 ft | 285 kts | 220° |
| 2026-05-06 09:23 | 50.84918 | 4.22432 | 6177 ft | 288 kts | 222° |
| 2026-05-06 09:24 | 50.83431 | 4.20322 | 6850 ft | 291 kts | 223° |
| 2026-05-06 09:24 | 50.81919 | 4.18144 | 7577 ft | 293 kts | 223° |
| 2026-05-06 09:24 | 50.80421 | 4.15984 | 8282 ft | 296 kts | 223° |
| 2026-05-06 09:24 | 50.78907 | 4.13805 | 8969 ft | 298 kts | 223° |
| 2026-05-06 09:25 | 50.77381 | 4.11619 | 9640 ft | 300 kts | 223° |
| 2026-05-06 09:25 | 50.75822 | 4.09385 | 10250 ft | 305 kts | 223° |
| 2026-05-06 09:25 | 50.74195 | 4.07060 | 10571 ft | 321 kts | 223° |
| 2026-05-06 09:25 | 50.72523 | 4.04676 | 10922 ft | 335 kts | 223° |
| 2026-05-06 09:26 | 50.70756 | 4.02160 | 11262 ft | 349 kts | 223° |
| 2026-05-06 09:26 | 50.68907 | 3.99534 | 11545 ft | 365 kts | 223° |
| 2026-05-06 09:26 | 50.66999 | 3.96835 | 11843 ft | 380 kts | 223° |
| 2026-05-06 09:26 | 50.64983 | 3.93976 | 12141 ft | 394 kts | 223° |
| 2026-05-06 09:27 | 50.62929 | 3.91049 | 12537 ft | 405 kts | 223° |
| 2026-05-06 09:27 | 50.60832 | 3.88064 | 13101 ft | 411 kts | 223° |
| 2026-05-06 09:27 | 50.58689 | 3.85059 | 13845 ft | 413 kts | 221° |
| 2026-05-06 09:27 | 50.56416 | 3.82369 | 14561 ft | 415 kts | 213° |
| 2026-05-06 09:28 | 50.53874 | 3.80176 | 15281 ft | 418 kts | 206° |
| 2026-05-06 09:28 | 50.51196 | 3.78336 | 15959 ft | 422 kts | 202° |
| 2026-05-06 09:28 | 50.48470 | 3.76638 | 16688 ft | 423 kts | 202° |
| 2026-05-06 09:28 | 50.45731 | 3.74958 | 17349 ft | 426 kts | 202° |
| 2026-05-06 09:29 | 50.42986 | 3.73238 | 17987 ft | 429 kts | 202° |
| 2026-05-06 09:29 | 50.40204 | 3.71453 | 18604 ft | 432 kts | 203° |
| 2026-05-06 09:29 | 50.37418 | 3.69624 | 19066 ft | 439 kts | 203° |
| 2026-05-06 09:29 | 50.34599 | 3.67739 | 19577 ft | 444 kts | 204° |
| 2026-05-06 09:30 | 50.31782 | 3.65839 | 20266 ft | 445 kts | 204° |
| 2026-05-06 09:30 | 50.28920 | 3.63901 | 20935 ft | 446 kts | 204° |
| 2026-05-06 09:30 | 50.26088 | 3.61990 | 21533 ft | 448 kts | 203° |
| 2026-05-06 09:30 | 50.23215 | 3.60052 | 22076 ft | 452 kts | 203° |
| 2026-05-06 09:31 | 50.20335 | 3.58111 | 22582 ft | 455 kts | 203° |
| 2026-05-06 09:31 | 50.17422 | 3.56153 | 22962 ft | 462 kts | 203° |
| 2026-05-06 09:31 | 50.14444 | 3.54153 | 23433 ft | 466 kts | 203° |
| 2026-05-06 09:31 | 50.11470 | 3.52157 | 23965 ft | 469 kts | 203° |
| 2026-05-06 09:32 | 50.08473 | 3.50149 | 24550 ft | 470 kts | 203° |
| 2026-05-06 09:32 | 50.05443 | 3.48125 | 25073 ft | 473 kts | 203° |
| 2026-05-06 09:32 | 50.02439 | 3.46124 | 25601 ft | 475 kts | 202° |
| 2026-05-06 09:32 | 49.99379 | 3.44093 | 26104 ft | 477 kts | 202° |
| 2026-05-06 09:33 | 49.96339 | 3.42076 | 26913 ft | 472 kts | 202° |
| 2026-05-06 09:33 | 49.93303 | 3.40064 | 27582 ft | 470 kts | 202° |
| 2026-05-06 09:33 | 49.90306 | 3.38080 | 28252 ft | 467 kts | 202° |
| 2026-05-06 09:33 | 49.87348 | 3.36123 | 28827 ft | 466 kts | 201° |
| 2026-05-06 09:34 | 49.84324 | 3.34125 | 29347 ft | 466 kts | 201° |
| 2026-05-06 09:34 | 49.81364 | 3.32170 | 29932 ft | 463 kts | 201° |
| 2026-05-06 09:34 | 49.78390 | 3.30206 | 30442 ft | 462 kts | 200° |
| 2026-05-06 09:34 | 49.75483 | 3.28287 | 30964 ft | 461 kts | 200° |
| 2026-05-06 09:35 | 49.72524 | 3.26337 | 31376 ft | 460 kts | 200° |
| 2026-05-06 09:35 | 49.69601 | 3.24413 | 31755 ft | 460 kts | 200° |
| 2026-05-06 09:35 | 49.66649 | 3.22474 | 32120 ft | 459 kts | 201° |
| 2026-05-06 09:35 | 49.63715 | 3.20550 | 32504 ft | 458 kts | 201° |
| 2026-05-06 09:36 | 49.60814 | 3.18648 | 32875 ft | 457 kts | 201° |
| 2026-05-06 09:36 | 49.57873 | 3.16721 | 33191 ft | 457 kts | 201° |
| 2026-05-06 09:36 | 49.54953 | 3.14811 | 33456 ft | 457 kts | 201° |
| 2026-05-06 09:36 | 49.52050 | 3.12912 | 33687 ft | 457 kts | 202° |
| 2026-05-06 09:37 | 49.49157 | 3.10851 | 33917 ft | 457 kts | 206° |
| 2026-05-06 09:37 | 49.46375 | 3.08492 | 34177 ft | 456 kts | 210° |
| 2026-05-06 09:37 | 49.43675 | 3.05935 | 34395 ft | 456 kts | 212° |
| 2026-05-06 09:37 | 49.41035 | 3.03291 | 34598 ft | 456 kts | 213° |
| 2026-05-06 09:38 | 49.38414 | 3.00601 | 34830 ft | 455 kts | 213° |
| 2026-05-06 09:38 | 49.33155 | 2.95162 | 34871 ft | 456 kts | 213° |
| 2026-05-06 09:39 | 49.27974 | 2.89842 | 34881 ft | 455 kts | 213° |
| 2026-05-06 09:39 | 49.22688 | 2.84467 | 34887 ft | 456 kts | 213° |
| 2026-05-06 09:40 | 49.17427 | 2.79157 | 34889 ft | 456 kts | 213° |
| 2026-05-06 09:40 | 49.09503 | 2.71206 | 34874 ft | 455 kts | 213° |
| 2026-05-06 09:41 | 49.04216 | 2.65924 | 34890 ft | 456 kts | 213° |
| 2026-05-06 09:41 | 48.98916 | 2.60645 | 34894 ft | 457 kts | 213° |
| 2026-05-06 09:42 | 48.93606 | 2.55368 | 34896 ft | 457 kts | 213° |
| 2026-05-06 09:42 | 48.88299 | 2.50109 | 34886 ft | 457 kts | 213° |
| 2026-05-06 09:43 | 48.82965 | 2.44835 | 34896 ft | 458 kts | 213° |
| 2026-05-06 09:43 | 48.77644 | 2.39588 | 34889 ft | 457 kts | 213° |
| 2026-05-06 09:44 | 48.72308 | 2.34341 | 34897 ft | 457 kts | 212° |
| 2026-05-06 09:44 | 48.66973 | 2.29107 | 34884 ft | 458 kts | 212° |
| 2026-05-06 09:45 | 48.61646 | 2.23904 | 34891 ft | 458 kts | 211° |
| 2026-05-06 09:45 | 48.56012 | 2.19322 | 34890 ft | 458 kts | 200° |
| 2026-05-06 09:46 | 48.49918 | 2.16608 | 34901 ft | 458 kts | 192° |
| 2026-05-06 09:46 | 48.43719 | 2.14635 | 34894 ft | 457 kts | 190° |
| 2026-05-06 09:47 | 48.37491 | 2.12777 | 34873 ft | 457 kts | 190° |
| 2026-05-06 09:47 | 48.31253 | 2.11020 | 34860 ft | 457 kts | 186° |
| 2026-05-06 09:48 | 48.24920 | 2.10800 | 34877 ft | 456 kts | 175° |
| 2026-05-06 09:48 | 48.18597 | 2.11817 | 34875 ft | 456 kts | 171° |
| 2026-05-06 09:49 | 48.12329 | 2.13169 | 34868 ft | 456 kts | 172° |
| 2026-05-06 09:49 | 48.06011 | 2.13862 | 34873 ft | 456 kts | 176° |
| 2026-05-06 09:50 | 47.99636 | 2.14181 | 34879 ft | 457 kts | 178° |
| 2026-05-06 09:50 | 47.93323 | 2.14460 | 34873 ft | 456 kts | 177° |
| 2026-05-06 09:51 | 47.86975 | 2.14770 | 34875 ft | 456 kts | 177° |
| 2026-05-06 09:51 | 47.80662 | 2.15107 | 34880 ft | 455 kts | 177° |
| 2026-05-06 09:52 | 47.74304 | 2.15463 | 34887 ft | 455 kts | 177° |
| 2026-05-06 09:52 | 47.67999 | 2.15825 | 34857 ft | 454 kts | 177° |
| 2026-05-06 09:53 | 47.61697 | 2.16188 | 34881 ft | 455 kts | 177° |
| 2026-05-06 09:53 | 47.55356 | 2.16555 | 34868 ft | 454 kts | 177° |
| 2026-05-06 09:54 | 47.49069 | 2.16919 | 34875 ft | 454 kts | 177° |
| 2026-05-06 09:54 | 47.42738 | 2.17285 | 34862 ft | 456 kts | 177° |
| 2026-05-06 09:55 | 47.36398 | 2.17650 | 34878 ft | 458 kts | 177° |
| 2026-05-06 09:55 | 47.30035 | 2.18014 | 34877 ft | 455 kts | 177° |
| 2026-05-06 09:56 | 47.23753 | 2.18374 | 34870 ft | 454 kts | 178° |
| 2026-05-06 09:56 | 47.17455 | 2.18736 | 34877 ft | 454 kts | 178° |
| 2026-05-06 09:57 | 47.11131 | 2.19293 | 34862 ft | 454 kts | 173° |
| 2026-05-06 09:57 | 47.04988 | 2.21385 | 34878 ft | 457 kts | 161° |
| 2026-05-06 09:58 | 46.99036 | 2.24653 | 34878 ft | 457 kts | 158° |
| 2026-05-06 09:58 | 46.93191 | 2.28173 | 34874 ft | 455 kts | 157° |
| 2026-05-06 09:59 | 46.87446 | 2.31635 | 34878 ft | 451 kts | 158° |
| 2026-05-06 09:59 | 46.81803 | 2.35774 | 34881 ft | 454 kts | 149° |
| 2026-05-06 10:00 | 46.76506 | 2.40633 | 34878 ft | 453 kts | 147° |
| 2026-05-06 10:00 | 46.71234 | 2.45737 | 34875 ft | 453 kts | 147° |
| 2026-05-06 10:01 | 46.65994 | 2.50808 | 34882 ft | 453 kts | 147° |
| 2026-05-06 10:01 | 46.60746 | 2.55837 | 34879 ft | 453 kts | 147° |
| 2026-05-06 10:02 | 46.55445 | 2.60872 | 34881 ft | 456 kts | 148° |
| 2026-05-06 10:02 | 46.50152 | 2.65873 | 34876 ft | 454 kts | 148° |
| 2026-05-06 10:03 | 46.44880 | 2.70835 | 34880 ft | 452 kts | 148° |
| 2026-05-06 10:03 | 46.39588 | 2.75803 | 34874 ft | 453 kts | 148° |
| 2026-05-06 10:04 | 46.34273 | 2.80779 | 34866 ft | 454 kts | 149° |
| 2026-05-06 10:04 | 46.28981 | 2.85723 | 34877 ft | 456 kts | 149° |
| 2026-05-06 10:05 | 46.23654 | 2.90689 | 34871 ft | 456 kts | 149° |
| 2026-05-06 10:05 | 46.18312 | 2.95657 | 34876 ft | 456 kts | 149° |
| 2026-05-06 10:06 | 46.13005 | 3.00582 | 34868 ft | 456 kts | 149° |
| 2026-05-06 10:06 | 46.07672 | 3.05519 | 34885 ft | 456 kts | 149° |
| 2026-05-06 10:07 | 46.02345 | 3.10440 | 34880 ft | 455 kts | 149° |
| 2026-05-06 10:07 | 45.96954 | 3.15164 | 34890 ft | 454 kts | 155° |
| 2026-05-06 10:08 | 45.90993 | 3.17806 | 34894 ft | 448 kts | 175° |
| 2026-05-06 10:08 | 45.84796 | 3.18153 | 34895 ft | 447 kts | 182° |
| 2026-05-06 10:09 | 45.78575 | 3.18021 | 34898 ft | 447 kts | 183° |
| 2026-05-06 10:09 | 45.72349 | 3.17837 | 34899 ft | 448 kts | 183° |
| 2026-05-06 10:10 | 45.66127 | 3.17686 | 34898 ft | 446 kts | 182° |
| 2026-05-06 10:10 | 45.59934 | 3.17569 | 34901 ft | 446 kts | 182° |
| 2026-05-06 10:11 | 45.53728 | 3.17471 | 34899 ft | 445 kts | 182° |
| 2026-05-06 10:11 | 45.47510 | 3.17382 | 34900 ft | 446 kts | 182° |
| 2026-05-06 10:12 | 45.41283 | 3.17298 | 34898 ft | 446 kts | 182° |
| 2026-05-06 10:12 | 45.35077 | 3.17216 | 34896 ft | 445 kts | 182° |
| 2026-05-06 10:13 | 45.28881 | 3.17133 | 34894 ft | 446 kts | 183° |
| 2026-05-06 10:13 | 45.22709 | 3.17052 | 34896 ft | 446 kts | 183° |
| 2026-05-06 10:14 | 45.16504 | 3.16970 | 34892 ft | 446 kts | 183° |
| 2026-05-06 10:14 | 45.10329 | 3.16889 | 34892 ft | 444 kts | 183° |
| 2026-05-06 10:15 | 45.04116 | 3.16808 | 34898 ft | 445 kts | 183° |
| 2026-05-06 10:15 | 44.97942 | 3.16726 | 34894 ft | 445 kts | 183° |
| 2026-05-06 10:16 | 44.91758 | 3.16644 | 34896 ft | 445 kts | 183° |
| 2026-05-06 10:16 | 44.85569 | 3.16564 | 34901 ft | 444 kts | 183° |
| 2026-05-06 10:17 | 44.79384 | 3.16485 | 34896 ft | 443 kts | 184° |
| 2026-05-06 10:17 | 44.73227 | 3.16405 | 34892 ft | 443 kts | 184° |
| 2026-05-06 10:18 | 44.67065 | 3.16323 | 34901 ft | 443 kts | 184° |
| 2026-05-06 10:18 | 44.60917 | 3.16244 | 34907 ft | 442 kts | 184° |
| 2026-05-06 10:19 | 44.54758 | 3.16263 | 34914 ft | 441 kts | 183° |
| 2026-05-06 10:19 | 44.48614 | 3.16378 | 34919 ft | 441 kts | 183° |
| 2026-05-06 10:20 | 44.42500 | 3.16501 | 34914 ft | 439 kts | 183° |
| 2026-05-06 10:20 | 44.36396 | 3.16612 | 34913 ft | 440 kts | 183° |
| 2026-05-06 10:21 | 44.30285 | 3.16714 | 34907 ft | 439 kts | 183° |
| 2026-05-06 10:21 | 44.24164 | 3.16813 | 34901 ft | 437 kts | 183° |
| 2026-05-06 10:22 | 44.18044 | 3.16908 | 34901 ft | 439 kts | 184° |
| 2026-05-06 10:22 | 44.11942 | 3.17002 | 34905 ft | 437 kts | 184° |
| 2026-05-06 10:23 | 44.08897 | 3.17041 | 34780 ft | 435 kts | 184° |
| 2026-05-06 10:23 | 44.05881 | 3.16923 | 34919 ft | 435 kts | 187° |
| 2026-05-06 10:23 | 43.99839 | 3.16249 | 34921 ft | 434 kts | 189° |
| 2026-05-06 10:24 | 43.93867 | 3.15438 | 34921 ft | 431 kts | 189° |
| 2026-05-06 10:24 | 43.87885 | 3.14647 | 34921 ft | 433 kts | 189° |
| 2026-05-06 10:25 | 43.81865 | 3.13890 | 34924 ft | 432 kts | 189° |
| 2026-05-06 10:25 | 43.75938 | 3.13171 | 34923 ft | 432 kts | 189° |
| 2026-05-06 10:26 | 43.69942 | 3.12455 | 34934 ft | 432 kts | 189° |
| 2026-05-06 10:26 | 43.63941 | 3.11746 | 34941 ft | 431 kts | 189° |
| 2026-05-06 10:27 | 43.57966 | 3.11041 | 34953 ft | 431 kts | 189° |
| 2026-05-06 10:27 | 43.52020 | 3.10341 | 34948 ft | 429 kts | 189° |
| 2026-05-06 10:28 | 43.46052 | 3.09639 | 34952 ft | 430 kts | 189° |
| 2026-05-06 10:28 | 43.40103 | 3.08942 | 34951 ft | 430 kts | 189° |
| 2026-05-06 10:29 | 43.34130 | 3.08244 | 34945 ft | 429 kts | 189° |
| 2026-05-06 10:29 | 43.28164 | 3.07547 | 34952 ft | 430 kts | 189° |
| 2026-05-06 10:30 | 43.22257 | 3.06860 | 34949 ft | 428 kts | 190° |
| 2026-05-06 10:30 | 43.16301 | 3.06167 | 34943 ft | 426 kts | 190° |
| 2026-05-06 10:31 | 43.10383 | 3.05478 | 35084 ft | 427 kts | 190° |
| 2026-05-06 10:31 | 43.07431 | 3.05137 | 34947 ft | 425 kts | 190° |
| 2026-05-06 10:31 | 43.04481 | 3.04799 | 34923 ft | 422 kts | 190° |
| 2026-05-06 10:32 | 42.98596 | 3.04116 | 34934 ft | 426 kts | 190° |
| 2026-05-06 10:32 | 42.92697 | 3.03433 | 34932 ft | 425 kts | 190° |
| 2026-05-06 10:33 | 42.86792 | 3.02753 | 34934 ft | 426 kts | 190° |
| 2026-05-06 10:33 | 42.80887 | 3.02073 | 34835 ft | 422 kts | 190° |
| 2026-05-06 10:34 | 42.75024 | 3.01399 | 34941 ft | 426 kts | 190° |
| 2026-05-06 10:34 | 42.69113 | 3.00724 | 34939 ft | 423 kts | 191° |
| 2026-05-06 10:35 | 42.63232 | 3.00052 | 34938 ft | 423 kts | 191° |
| 2026-05-06 10:35 | 42.57390 | 2.99384 | 34946 ft | 425 kts | 191° |
| 2026-05-06 10:36 | 42.51477 | 2.98710 | 34942 ft | 422 kts | 191° |
| 2026-05-06 10:36 | 42.45565 | 2.98373 | 34945 ft | 430 kts | 185° |
| 2026-05-06 10:37 | 42.39555 | 2.98782 | 34948 ft | 431 kts | 182° |
| 2026-05-06 10:37 | 42.33633 | 2.99363 | 34937 ft | 430 kts | 182° |
| 2026-05-06 10:38 | 42.27639 | 2.99929 | 34947 ft | 429 kts | 183° |
| 2026-05-06 10:38 | 42.21701 | 3.00448 | 34927 ft | 427 kts | 183° |
| 2026-05-06 10:39 | 42.15759 | 3.00943 | 34929 ft | 429 kts | 183° |
| 2026-05-06 10:39 | 42.09790 | 3.01431 | 34944 ft | 427 kts | 184° |
| 2026-05-06 10:40 | 42.03823 | 3.01914 | 34942 ft | 428 kts | 184° |
| 2026-05-06 10:40 | 41.97885 | 3.02392 | 34939 ft | 429 kts | 184° |
| 2026-05-06 10:41 | 41.91928 | 3.02874 | 34945 ft | 428 kts | 184° |
| 2026-05-06 10:41 | 41.86015 | 3.03350 | 34942 ft | 429 kts | 183° |
| 2026-05-06 10:42 | 41.80045 | 3.03828 | 34938 ft | 429 kts | 184° |
| 2026-05-06 10:42 | 41.74121 | 3.04305 | 34937 ft | 428 kts | 183° |
| 2026-05-06 10:43 | 41.68187 | 3.04783 | 34937 ft | 427 kts | 184° |
| 2026-05-06 10:44 | 41.59283 | 3.05493 | 34950 ft | 426 kts | 184° |
| 2026-05-06 10:44 | 41.53334 | 3.05967 | 34946 ft | 426 kts | 184° |
| 2026-05-06 10:45 | 41.47409 | 3.06437 | 34948 ft | 426 kts | 184° |
| 2026-05-06 10:45 | 41.41484 | 3.06909 | 34949 ft | 426 kts | 184° |
| 2026-05-06 10:46 | 41.35600 | 3.07375 | 34955 ft | 425 kts | 184° |
| 2026-05-06 10:46 | 41.29666 | 3.07845 | 34962 ft | 426 kts | 184° |
| 2026-05-06 10:47 | 41.23744 | 3.08312 | 34963 ft | 426 kts | 184° |
| 2026-05-06 10:47 | 41.17815 | 3.08778 | 34965 ft | 427 kts | 184° |
| 2026-05-06 10:48 | 41.11846 | 3.09248 | 34965 ft | 427 kts | 184° |
| 2026-05-06 10:48 | 41.05946 | 3.09713 | 34969 ft | 426 kts | 184° |
| 2026-05-06 10:49 | 41.00014 | 3.10179 | 34960 ft | 426 kts | 184° |
| 2026-05-06 10:49 | 40.94086 | 3.10642 | 34966 ft | 426 kts | 184° |
| 2026-05-06 10:50 | 40.88349 | 3.11090 | 34972 ft | 426 kts | 184° |
| 2026-05-06 10:50 | 40.82413 | 3.11553 | 34966 ft | 426 kts | 183° |
| 2026-05-06 10:51 | 40.76512 | 3.12012 | 34962 ft | 427 kts | 184° |
| 2026-05-06 10:51 | 40.70589 | 3.12472 | 34961 ft | 428 kts | 184° |
| 2026-05-06 10:52 | 40.64636 | 3.12934 | 34959 ft | 428 kts | 184° |
| 2026-05-06 10:52 | 40.58662 | 3.13398 | 34962 ft | 428 kts | 184° |
| 2026-05-06 10:53 | 40.52766 | 3.13857 | 34961 ft | 424 kts | 184° |
| 2026-05-06 10:53 | 40.46866 | 3.14124 | 34954 ft | 424 kts | 187° |
| 2026-05-06 10:54 | 40.40966 | 3.13867 | 34950 ft | 421 kts | 189° |
| 2026-05-06 10:54 | 40.35127 | 3.13507 | 34950 ft | 422 kts | 189° |
| 2026-05-06 10:55 | 40.29244 | 3.13171 | 34948 ft | 422 kts | 189° |
| 2026-05-06 10:55 | 40.23376 | 3.12869 | 34949 ft | 424 kts | 188° |
| 2026-05-06 10:56 | 40.17467 | 3.12585 | 34948 ft | 424 kts | 188° |
| 2026-05-06 10:56 | 40.11556 | 3.12310 | 34943 ft | 425 kts | 188° |
| 2026-05-06 10:57 | 40.05642 | 3.12041 | 34947 ft | 426 kts | 188° |
| 2026-05-06 10:57 | 39.99714 | 3.11772 | 34943 ft | 425 kts | 188° |
| 2026-05-06 10:58 | 39.93883 | 3.11054 | 34944 ft | 416 kts | 198° |
| 2026-05-06 10:58 | 39.88556 | 3.08517 | 34947 ft | 408 kts | 211° |
| 2026-05-06 10:59 | 39.83572 | 3.05022 | 34945 ft | 405 kts | 214° |
| 2026-05-06 10:59 | 39.78686 | 3.01380 | 34944 ft | 406 kts | 214° |
| 2026-05-06 11:00 | 39.73779 | 2.97743 | 34943 ft | 407 kts | 213° |
| 2026-05-06 11:00 | 39.69088 | 2.94309 | 34950 ft | 408 kts | 213° |
| 2026-05-06 11:01 | 39.64104 | 2.90687 | 34957 ft | 409 kts | 213° |
| 2026-05-06 11:01 | 39.59143 | 2.87100 | 34958 ft | 409 kts | 213° |
| 2026-05-06 11:02 | 39.54155 | 2.83505 | 34948 ft | 408 kts | 213° |
| 2026-05-06 11:02 | 39.49166 | 2.79912 | 34941 ft | 410 kts | 213° |
| 2026-05-06 11:03 | 39.44414 | 2.75966 | 34939 ft | 406 kts | 222° |
| 2026-05-06 11:03 | 39.40362 | 2.70914 | 34938 ft | 403 kts | 231° |
| 2026-05-06 11:04 | 39.36753 | 2.65357 | 34938 ft | 401 kts | 233° |
| 2026-05-06 11:04 | 39.33254 | 2.59711 | 34935 ft | 403 kts | 233° |
| 2026-05-06 11:05 | 39.29753 | 2.54085 | 34769 ft | 399 kts | 233° |
| 2026-05-06 11:05 | 39.28031 | 2.51340 | 34417 ft | 393 kts | 233° |
| 2026-05-06 11:05 | 39.26303 | 2.48596 | 33806 ft | 390 kts | 233° |
| 2026-05-06 11:05 | 39.24607 | 2.45908 | 33151 ft | 389 kts | 233° |
| 2026-05-06 11:06 | 39.22908 | 2.43223 | 32475 ft | 388 kts | 233° |
| 2026-05-06 11:06 | 39.21180 | 2.40494 | 31775 ft | 388 kts | 233° |
| 2026-05-06 11:06 | 39.19496 | 2.37842 | 31064 ft | 388 kts | 232° |
| 2026-05-06 11:06 | 39.17773 | 2.35129 | 30326 ft | 388 kts | 232° |
| 2026-05-06 11:07 | 39.16056 | 2.32432 | 29589 ft | 389 kts | 232° |
| 2026-05-06 11:07 | 39.14331 | 2.29723 | 28807 ft | 390 kts | 232° |
| 2026-05-06 11:07 | 39.12618 | 2.27036 | 28014 ft | 392 kts | 232° |
| 2026-05-06 11:07 | 39.10885 | 2.24318 | 27193 ft | 394 kts | 232° |
| 2026-05-06 11:08 | 39.09156 | 2.21612 | 26335 ft | 397 kts | 232° |
| 2026-05-06 11:08 | 39.07387 | 2.18844 | 25433 ft | 400 kts | 232° |
| 2026-05-06 11:08 | 39.05615 | 2.16073 | 24509 ft | 404 kts | 232° |
| 2026-05-06 11:08 | 39.03828 | 2.13283 | 23740 ft | 404 kts | 232° |
| 2026-05-06 11:09 | 39.02030 | 2.10477 | 23291 ft | 416 kts | 232° |
| 2026-05-06 11:09 | 39.00173 | 2.07579 | 22717 ft | 424 kts | 231° |
| 2026-05-06 11:09 | 38.98309 | 2.04674 | 22111 ft | 419 kts | 231° |
| 2026-05-06 11:09 | 38.96468 | 2.01811 | 21519 ft | 413 kts | 231° |
| 2026-05-06 11:10 | 38.94659 | 1.99002 | 20927 ft | 407 kts | 231° |
| 2026-05-06 11:10 | 38.92921 | 1.96191 | 20342 ft | 401 kts | 235° |
| 2026-05-06 11:10 | 38.91425 | 1.93182 | 19761 ft | 395 kts | 242° |
| 2026-05-06 11:10 | 38.90279 | 1.90001 | 19181 ft | 390 kts | 249° |
| 2026-05-06 11:11 | 38.89409 | 1.86751 | 18612 ft | 385 kts | 252° |
| 2026-05-06 11:11 | 38.88674 | 1.83457 | 18039 ft | 381 kts | 254° |
| 2026-05-06 11:11 | 38.88002 | 1.80134 | 17471 ft | 392 kts | 255° |
| 2026-05-06 11:11 | 38.87336 | 1.76742 | 16884 ft | 398 kts | 255° |
| 2026-05-06 11:12 | 38.86658 | 1.73299 | 16252 ft | 394 kts | 255° |
| 2026-05-06 11:12 | 38.85981 | 1.69905 | 15654 ft | 388 kts | 255° |
| 2026-05-06 11:12 | 38.85311 | 1.66595 | 15061 ft | 384 kts | 255° |
| 2026-05-06 11:12 | 38.84638 | 1.63305 | 14469 ft | 379 kts | 255° |
| 2026-05-06 11:13 | 38.83975 | 1.60087 | 13903 ft | 374 kts | 255° |
| 2026-05-06 11:13 | 38.83295 | 1.56869 | 13281 ft | 369 kts | 254° |
| 2026-05-06 11:13 | 38.82609 | 1.53736 | 12836 ft | 360 kts | 254° |
| 2026-05-06 11:13 | 38.81938 | 1.50728 | 12585 ft | 347 kts | 254° |
| 2026-05-06 11:14 | 38.81291 | 1.47845 | 12463 ft | 331 kts | 254° |
| 2026-05-06 11:14 | 38.80662 | 1.45038 | 12325 ft | 317 kts | 254° |
| 2026-05-06 11:14 | 38.79979 | 1.42435 | 12197 ft | 304 kts | 248° |
| 2026-05-06 11:14 | 38.79083 | 1.40011 | 12076 ft | 292 kts | 243° |
| 2026-05-06 11:15 | 38.78126 | 1.37768 | 11940 ft | 280 kts | 242° |
| 2026-05-06 11:15 | 38.77193 | 1.35642 | 11815 ft | 269 kts | 242° |
| 2026-05-06 11:15 | 38.76300 | 1.33566 | 11714 ft | 259 kts | 242° |
| 2026-05-06 11:15 | 38.75467 | 1.31585 | 11614 ft | 249 kts | 242° |
| 2026-05-06 11:16 | 38.74664 | 1.29651 | 11465 ft | 240 kts | 243° |
| 2026-05-06 11:16 | 38.73874 | 1.27742 | 11230 ft | 251 kts | 243° |
| 2026-05-06 11:16 | 38.73043 | 1.25740 | 10976 ft | 258 kts | 242° |
| 2026-05-06 11:16 | 38.72202 | 1.23721 | 10684 ft | 256 kts | 242° |
| 2026-05-06 11:17 | 38.71360 | 1.21708 | 10376 ft | 256 kts | 242° |
| 2026-05-06 11:17 | 38.70525 | 1.19716 | 10012 ft | 251 kts | 243° |
| 2026-05-06 11:17 | 38.69721 | 1.17794 | 9810 ft | 238 kts | 243° |
| 2026-05-06 11:17 | 38.68956 | 1.15964 | 9417 ft | 236 kts | 243° |
| 2026-05-06 11:18 | 38.68178 | 1.14101 | 8946 ft | 238 kts | 242° |
| 2026-05-06 11:18 | 38.67396 | 1.12237 | 8514 ft | 236 kts | 242° |
| 2026-05-06 11:18 | 38.66622 | 1.10393 | 8049 ft | 237 kts | 242° |
| 2026-05-06 11:18 | 38.65840 | 1.08529 | 7582 ft | 237 kts | 242° |
| 2026-05-06 11:19 | 38.65061 | 1.06669 | 7125 ft | 238 kts | 243° |
| 2026-05-06 11:19 | 38.64521 | 1.04718 | 6692 ft | 238 kts | 266° |
| 2026-05-06 11:19 | 38.64777 | 1.02637 | 6203 ft | 237 kts | 298° |
| 2026-05-06 11:19 | 38.65792 | 1.01035 | 5781 ft | 234 kts | 322° |
| 2026-05-06 11:20 | 38.67134 | 0.99878 | 5367 ft | 232 kts | 335° |
| 2026-05-06 11:20 | 38.68660 | 0.99363 | 5055 ft | 228 kts | 4° |
| 2026-05-06 11:20 | 38.70156 | 0.99912 | 4785 ft | 222 kts | 31° |
| 2026-05-06 11:20 | 38.71433 | 1.01008 | 4487 ft | 221 kts | 41° |
| 2026-05-06 11:21 | 38.72498 | 1.02412 | 4228 ft | 218 kts | 54° |
| 2026-05-06 11:21 | 38.73336 | 1.04014 | 3999 ft | 215 kts | 58° |
| 2026-05-06 11:21 | 38.74120 | 1.05645 | 3998 ft | 214 kts | 59° |
| 2026-05-06 11:21 | 38.74860 | 1.07302 | 3990 ft | 216 kts | 62° |
| 2026-05-06 11:22 | 38.75576 | 1.09013 | 3977 ft | 215 kts | 62° |
| 2026-05-06 11:22 | 38.76268 | 1.10700 | 3987 ft | 208 kts | 62° |
| 2026-05-06 11:22 | 38.76921 | 1.12293 | 3884 ft | 198 kts | 63° |
| 2026-05-06 11:22 | 38.77541 | 1.13811 | 3744 ft | 189 kts | 63° |
| 2026-05-06 11:23 | 38.78115 | 1.15296 | 3652 ft | 179 kts | 64° |
| 2026-05-06 11:23 | 38.78680 | 1.16707 | 3362 ft | 178 kts | 62° |
| 2026-05-06 11:23 | 38.79248 | 1.18069 | 3110 ft | 167 kts | 62° |
| 2026-05-06 11:23 | 38.79781 | 1.19339 | 2886 ft | 155 kts | 62° |
| 2026-05-06 11:24 | 38.80267 | 1.20502 | 2714 ft | 149 kts | 62° |
| 2026-05-06 11:24 | 38.80750 | 1.21655 | 2461 ft | 143 kts | 61° |
| 2026-05-06 11:24 | 38.81217 | 1.22771 | 2300 ft | 143 kts | 62° |
| 2026-05-06 11:24 | 38.81686 | 1.23893 | 2087 ft | 142 kts | 62° |
| 2026-05-06 11:25 | 38.82154 | 1.25013 | 1883 ft | 141 kts | 61° |
| 2026-05-06 11:25 | 38.82612 | 1.26107 | 1724 ft | 143 kts | 62° |
| 2026-05-06 11:25 | 38.83078 | 1.27226 | 1517 ft | 139 kts | 61° |
| 2026-05-06 11:25 | 38.83533 | 1.28321 | 1332 ft | 138 kts | 62° |
| 2026-05-06 11:26 | 38.84002 | 1.29446 | 1153 ft | 145 kts | 63° |
| 2026-05-06 11:26 | 38.84481 | 1.30584 | 952 ft | 144 kts | 64° |
| 2026-05-06 11:26 | 38.84949 | 1.31709 | 762 ft | 143 kts | 62° |
| 2026-05-06 11:26 | 38.85412 | 1.32836 | 574 ft | 142 kts | 64° |
| 2026-05-06 11:27 | 38.85880 | 1.33947 | 396 ft | 141 kts | 61° |
| 2026-05-06 11:27 | 38.86366 | 1.35058 | 209 ft | 143 kts | 65° |
| 2026-05-06 11:27 | 38.86833 | 1.36211 | 30 ft | 145 kts | 65° |
| 2026-05-06 11:27 | 38.87215 | 1.37145 | 28 ft | 86 kts | 62° |
| 2026-05-06 11:28 | 38.87403 | 1.37596 | 28 ft | 33 kts | 62° |
| 2026-05-06 11:28 | 38.87542 | 1.37819 | 28 ft | 31 kts | 41° |
| 2026-05-06 11:28 | 38.87647 | 1.37910 | 28 ft | 1 kts | 23° |
| 2026-05-06 11:28 | 38.87656 | 1.37913 | 28 ft | 4 kts | 0° |
| 2026-05-06 11:29 | 38.87690 | 1.37844 | 28 ft | 17 kts | 244° |
| 2026-05-06 11:29 | 38.87635 | 1.37702 | 28 ft | 17 kts | 242° |
| 2026-05-06 11:29 | 38.87586 | 1.37567 | 28 ft | 14 kts | 285° |
| 2026-05-06 11:29 | 38.87666 | 1.37502 | 28 ft | 13 kts | 332° |
| 2026-05-06 11:30 | 38.87691 | 1.37406 | 28 ft | 13 kts | 246° |
| 2026-05-06 11:30 | 38.87641 | 1.37285 | 28 ft | 20 kts | 242° |
| 2026-05-06 11:30 | 38.87571 | 1.37112 | 28 ft | 9 kts | 258° |
| 2026-05-06 11:30 | 38.87609 | 1.37071 | 28 ft | 5 kts | 333° |
| 2026-05-06 11:31 | 38.87622 | 1.37062 | 28 ft | 0 kts | 331° |